EYSA/SQQ METAR and TAF weather

Enter ICAO airport designator
Station Type Date Time Source
EYSA METAR 2021/04/14 20:20 UTC NOAA

EYSA 142020Z 36011KT 9999 SCT041 OVC054 03/M00 Q1022 BLU NOSIG


Station Type Date Time Source
EYSA Decoded METAR 2021/04/14 20:20 UTC NOAA

Siauliai Intl./Mil., Lithuania (EYSA) 55-53-38N 023-23-42E
Apr 14, 2021 - 04:20 PM EDT / 2021.04.14 2020 UTC
Wind: from the N (360 degrees) at 13 MPH (11 KT):0
Visibility: greater than 7 mile(s):0
Sky conditions: overcast
Temperature: 37 F (3 C)
Dew Point: 32 F (0 C)
Relative Humidity: 80%
Pressure (altimeter): 30.18 in. Hg (1022 hPa)
ob: EYSA 142020Z 36011KT 9999 SCT041 OVC054 03/M00 Q1022 BLU NOSIG
cycle: 20

Station Type Date Time Source
EYSA TAF 2021/03/23 06:03 UTC NOAA

TAF TAF EYSA 230501Z 2306/2318 VRB05KT 9000 BKN030 PROB30
TEMPO 2306/2309 BKN010

Example: see airport list